createdAt,value
2022-10-06T14:02:38.415Z,76.21
2022-10-06T14:05:46.576Z,77.16
2022-10-06T14:11:14.720Z,78.05
2022-10-06T14:14:11.160Z,78.61
2022-10-06T14:16:52.019Z,78.81
2022-10-06T14:19:46.506Z,78.77
2022-10-06T14:22:39.670Z,78.97
2022-10-06T14:25:32.765Z,79.27
2022-10-06T14:28:13.263Z,79.26
2022-10-06T14:30:41.655Z,79.62
2022-10-06T14:33:10.687Z,79.75
2022-10-06T14:35:41.177Z,80.53
2022-10-06T14:38:09.322Z,81.04
2022-10-06T14:40:42.315Z,81.49
2022-10-06T14:43:10.738Z,81.43
2022-10-06T14:45:45.679Z,81.25
2022-10-06T14:51:36.564Z,81.06
2022-10-06T15:00:11.660Z,80.93
2022-10-06T15:03:08.393Z,80.90
2022-10-06T15:06:05.934Z,80.41
2022-10-06T15:08:37.279Z,79.77
2022-10-06T15:11:05.231Z,78.83
2022-10-06T15:13:36.287Z,79.47
2022-10-06T15:16:05.628Z,79.56
2022-10-06T15:19:05.281Z,78.57
2022-10-06T15:34:24.442Z,75.72
2022-10-06T15:44:12.076Z,71.73
2022-10-06T15:47:08.614Z,72.86
2022-10-06T15:52:35.553Z,70.90
2022-10-06T15:55:03.759Z,70.38
2022-10-06T15:57:32.348Z,69.17
2022-10-06T16:00:03.286Z,68.54
2022-10-06T16:02:36.163Z,68.70
2022-10-06T16:05:04.651Z,67.88
2022-10-06T16:07:34.760Z,68.54
2022-10-06T16:10:05.575Z,67.91
2022-10-06T16:12:33.843Z,66.98
2022-10-06T16:15:02.032Z,66.58
2022-10-06T16:17:32.825Z,65.74
2022-10-06T16:20:01.466Z,65.16
2022-10-06T16:22:32.785Z,64.52
2022-10-06T16:25:08.572Z,64.97
2022-10-06T16:27:36.784Z,64.69
2022-10-06T16:30:08.594Z,64.92
2022-10-06T16:32:47.366Z,65.73
2022-10-06T16:35:18.556Z,65.48
2022-10-06T16:37:55.547Z,64.59
2022-10-06T16:40:24.032Z,63.83
2022-10-06T16:42:58.085Z,63.13
2022-10-06T16:45:26.403Z,62.11
2022-10-06T16:47:54.694Z,62.06
2022-10-06T16:50:25.920Z,61.45
2022-10-06T16:52:54.157Z,60.37
2022-10-06T16:55:22.413Z,60.37
2022-10-06T16:57:50.780Z,59.80
2022-10-06T17:00:19.341Z,60.01
2022-10-06T17:02:47.722Z,60.81
2022-10-06T17:05:16.109Z,59.67
2022-10-06T17:07:46.555Z,59.59
2022-10-06T17:10:21.820Z,59.33
2022-10-06T17:12:50.143Z,59.32
2022-10-06T17:15:21.390Z,59.66
2022-10-06T17:17:52.304Z,59.40
2022-10-06T17:20:20.642Z,60.49
2022-10-06T17:22:49.490Z,60.37
2022-10-06T17:25:19.754Z,59.96
2022-10-06T17:27:48.023Z,60.66
2022-10-06T17:30:17.733Z,59.14
2022-10-06T17:32:49.168Z,58.39
2022-10-06T17:35:20.068Z,58.47
2022-10-06T17:37:51.280Z,58.13
2022-10-06T17:40:19.507Z,59.05
2022-10-06T17:42:47.710Z,60.43
2022-10-06T17:45:21.084Z,60.43
2022-10-06T17:47:50.279Z,58.97
2022-10-06T17:50:18.542Z,57.26
2022-10-06T17:52:48.054Z,56.63
2022-10-06T17:55:17.487Z,56.67
2022-10-06T17:57:45.746Z,58.06
2022-10-06T18:00:18.901Z,58.12
2022-10-06T18:02:49.017Z,57.84
2022-10-06T18:05:17.604Z,56.58
2022-10-06T18:07:46.457Z,56.34
2022-10-06T18:10:33.305Z,55.58
2022-10-06T18:13:01.489Z,54.78
2022-10-06T18:15:29.833Z,54.40
2022-10-06T18:17:58.094Z,53.64
2022-10-06T18:20:30.817Z,54.14
2022-10-06T18:22:59.046Z,53.58
2022-10-06T18:25:34.053Z,53.15
2022-10-06T18:28:02.474Z,53.49
2022-10-06T18:30:31.824Z,53.98
2022-10-06T18:36:06.801Z,53.77
2022-10-06T18:38:46.633Z,53.93
2022-10-06T18:41:20.543Z,53.08
2022-10-06T18:43:49.298Z,53.47
2022-10-06T18:46:37.763Z,53.38
2022-10-06T18:49:14.391Z,52.72
2022-10-06T18:51:58.083Z,52.52
2022-10-06T18:54:30.967Z,52.44
2022-10-06T18:56:59.545Z,52.20
2022-10-06T18:59:34.333Z,52.08
2022-10-06T19:02:12.749Z,51.93
2022-10-06T19:04:49.632Z,52.36
2022-10-06T19:07:17.848Z,51.64
2022-10-06T19:09:47.051Z,52.74
2022-10-06T19:12:15.466Z,52.63
2022-10-06T19:14:48.204Z,53.12
2022-10-06T19:17:17.119Z,52.59
2022-10-06T19:19:51.860Z,52.55
2022-10-06T19:22:24.599Z,52.37
2022-10-06T19:24:53.511Z,52.82
2022-10-06T19:27:28.907Z,52.68
2022-10-06T19:29:57.499Z,52.52
2022-10-06T19:32:29.211Z,52.31
2022-10-06T19:34:59.514Z,51.73
2022-10-06T19:37:32.574Z,51.18
2022-10-06T19:40:00.750Z,50.77
2022-10-06T19:42:47.515Z,50.52
2022-10-06T19:45:16.982Z,49.83
2022-10-06T19:47:54.615Z,49.36
2022-10-06T19:50:22.958Z,48.73
2022-10-06T19:52:52.495Z,49.12
2022-10-06T19:55:23.847Z,49.13
2022-10-06T19:57:52.513Z,49.38
2022-10-06T20:00:21.114Z,49.44
2022-10-06T20:02:49.447Z,48.38
2022-10-06T20:05:20.880Z,48.12
2022-10-06T20:07:49.385Z,47.50
2022-10-06T20:10:17.836Z,46.36
2022-10-06T20:12:46.863Z,46.98
2022-10-06T20:15:20.655Z,47.88
2022-10-06T20:17:48.901Z,48.38
2022-10-06T20:20:21.869Z,48.08
2022-10-06T20:22:50.731Z,48.64
2022-10-06T20:25:18.937Z,49.18
2022-10-06T20:27:51.792Z,49.43
2022-10-06T20:30:20.042Z,50.25
2022-10-06T20:32:53.944Z,49.81
2022-10-06T20:35:22.221Z,50.25
2022-10-06T20:37:50.434Z,50.04
2022-10-06T20:40:36.789Z,49.83
2022-10-06T20:43:10.620Z,49.97
2022-10-06T20:45:41.633Z,49.76
2022-10-06T20:48:17.733Z,49.96
2022-10-06T20:50:57.019Z,50.18
2022-10-06T20:53:32.273Z,49.59
2022-10-06T20:56:08.188Z,50.30
2022-10-06T20:58:37.035Z,50.53
2022-10-06T21:01:09.379Z,49.86
2022-10-06T21:03:44.447Z,49.84
2022-10-06T21:06:16.701Z,49.71
2022-10-06T21:08:46.498Z,50.09
2022-10-06T21:11:21.953Z,50.07
2022-10-06T21:13:54.835Z,49.99
2022-10-06T21:16:30.303Z,50.07
2022-10-06T21:18:59.656Z,50.42
2022-10-06T21:21:28.039Z,50.49
2022-10-06T21:24:17.215Z,50.65
2022-10-06T21:26:45.483Z,50.64
2022-10-06T21:29:16.971Z,49.92
2022-10-06T21:31:47.063Z,50.35
2022-10-06T21:34:15.600Z,49.89
2022-10-06T21:36:46.720Z,50.34
2022-10-06T21:39:18.074Z,50.25
2022-10-06T21:41:46.291Z,50.45
2022-10-06T21:44:19.642Z,50.15
2022-10-06T21:46:56.748Z,50.16
2022-10-06T21:49:26.564Z,49.99
2022-10-06T21:51:57.286Z,49.61
2022-10-06T21:54:25.341Z,49.74
2022-10-06T21:56:53.801Z,50.02
2022-10-06T21:59:22.211Z,50.04
2022-10-06T22:01:54.620Z,49.25
2022-10-06T22:04:22.798Z,49.37
2022-10-06T22:06:51.519Z,48.83
2022-10-06T22:09:21.126Z,48.92
2022-10-06T22:11:52.964Z,48.97
2022-10-06T22:14:21.545Z,49.42
2022-10-06T22:22:46.467Z,50.31
2022-10-06T22:25:18.790Z,50.38
2022-10-06T22:28:15.776Z,51.11
